Terminal Aerodrome Forecast
Issued by NWS

Home | Current Version | Previous Version | Text Only | Print | Product List | Glossary On
Versions: 1 2 3 4 5 6 7 8 9 10 11 12 13 14 15 16 17 18 19 20 21 22 23 24 25 26 27 28 29 30
379
FTUS45 KGJT 201120
TAFHDN
TAF
KHDN 201120Z 2012/2112 10007KT P6SM SKC
     FM201700 20015G25KT P6SM FEW250
     FM202300 25020G30KT P6SM SCT100 BKN150
     FM210100 26012G22KT P6SM SCT150
     FM210700 VRB03KT P6SM FEW250=

USA.gov is the U.S. government's official web portal to all federal, state and local government web resources and services.